Luz De Mar — ECIJ — position and weather

sailwx.info

Track history (hours):
 
Tides and Currents Weather Stations Pressure Air Temp Water Temp Dewpoint Dewpoint Depression Visibility Wind Speed Wind Dir Waves Ship Positions

Luz De Mar

Last reported at 2017-Mar-26 06:26 UTC. Time now 2017-Mar-26 13:01 UTC.
Position N 36°08' W 005°26'.

Length 56 m; draft 6.7 m.

Type: SAR. MMSI: 224311000.

Date/timePositionNaut miles runAvg speedWind from/ knotsBaromVisibWave heightAir tempDewpointWater temp
2017-Mar-26 06:26N 36°08' W 005°26'0 0.0
2017-Mar-26 05:20N 36°08' W 005°26'0 0.0
2017-Mar-26 04:32N 36°08' W 005°26'0 0.0
2017-Mar-26 03:20N 36°08' W 005°26'4 0.3
2017-Mar-25 13:33N 36°06' W 005°21'6 1.1
2017-Mar-25 08:19N 36°07' W 005°14'6 0.5
2017-Mar-24 19:33N 36°05' W 005°21'5 0.7
2017-Mar-24 12:33N 36°05' W 005°15'9 0.4
2017-Mar-23 14:31N 36°08' W 005°26'0 0.0
2017-Mar-23 13:28N 36°08' W 005°26'0 0.0
2017-Mar-23 12:31N 36°08' W 005°26'0 0.0
2017-Mar-23 11:31N 36°08' W 005°26'0 0.0
2017-Mar-23 10:31N 36°08' W 005°26'0 0.0
2017-Mar-23 09:31N 36°08' W 005°26'0 0.0
2017-Mar-23 08:31N 36°08' W 005°26'0 0.0
2017-Mar-23 07:31N 36°08' W 005°26'0 0.0
2017-Mar-23 06:31N 36°08' W 005°26'0 0.0
2017-Mar-23 05:31N 36°08' W 005°26'0 0.0
2017-Mar-23 04:31N 36°08' W 005°26'0 0.0
2017-Mar-23 03:31N 36°08' W 005°26'0 0.0
2017-Mar-23 02:31N 36°08' W 005°26'0 0.0
2017-Mar-23 01:31N 36°08' W 005°26'0 0.0
2017-Mar-23 00:31N 36°08' W 005°26'0 0.0
2017-Mar-22 23:31N 36°08' W 005°26'0 0.0
2017-Mar-22 22:31N 36°08' W 005°26'0 0.0
2017-Mar-22 21:31N 36°08' W 005°26'0 0.0
2017-Mar-22 20:31N 36°08' W 005°26'0 0.0
2017-Mar-22 19:31N 36°08' W 005°26'0 0.0
2017-Mar-22 18:28N 36°08' W 005°26'0 0.0
2017-Mar-22 17:31N 36°08' W 005°26'0 0.0
2017-Mar-22 16:31N 36°08' W 005°26'0 0.0
2017-Mar-22 15:28N 36°08' W 005°26'0 0.0
2017-Mar-22 14:31N 36°08' W 005°26'0 0.0
2017-Mar-22 13:31N 36°08' W 005°26'0 0.0
2017-Mar-22 12:31N 36°08' W 005°26'0 0.0
2017-Mar-22 11:31N 36°08' W 005°26'0 0.0
2017-Mar-22 10:31N 36°08' W 005°26'0 0.0
2017-Mar-22 09:28N 36°08' W 005°26'0 0.0
2017-Mar-22 08:31N 36°08' W 005°26'0 0.0
2017-Mar-22 07:31N 36°08' W 005°26'0 0.0
2017-Mar-22 06:31N 36°08' W 005°26'0 0.0
2017-Mar-22 05:31N 36°08' W 005°26'0 0.0
2017-Mar-22 04:31N 36°08' W 005°26'0 0.0
2017-Mar-22 03:31N 36°08' W 005°26'0 0.0
2017-Mar-22 02:31N 36°08' W 005°26'0 0.0
2017-Mar-22 01:31N 36°08' W 005°26'0 0.0
2017-Mar-22 00:31N 36°08' W 005°26'0 0.0
2017-Mar-21 23:31N 36°08' W 005°26'0 0.0
2017-Mar-21 22:31N 36°08' W 005°26'0 0.0
2017-Mar-21 21:31N 36°08' W 005°26'0 0.0
2017-Mar-21 20:31N 36°08' W 005°26'0 0.0
2017-Mar-21 19:31N 36°08' W 005°26'0 0.0
2017-Mar-21 18:31N 36°08' W 005°26'0 0.0
2017-Mar-21 17:31N 36°08' W 005°26'0 0.0
2017-Mar-21 16:31N 36°08' W 005°26'0 0.0
2017-Mar-21 15:31N 36°08' W 005°26'1 1.2
2017-Mar-21 14:33N 36°09' W 005°26'1 1.5
2017-Mar-21 13:33N 36°10' W 005°24'2 2.3
2017-Mar-21 12:32N 36°08' W 005°26'0 0.0
2017-Mar-21 11:32N 36°08' W 005°26'0 0.0
2017-Mar-21 10:32N 36°08' W 005°26'0 0.0
2017-Mar-21 09:32N 36°08' W 005°26'0 0.0
2017-Mar-21 08:32N 36°08' W 005°26'0 0.0
2017-Mar-21 07:32N 36°08' W 005°26'0 0.0
2017-Mar-21 06:32N 36°08' W 005°26'0 0.0
2017-Mar-21 05:32N 36°08' W 005°26'0 0.0
2017-Mar-21 04:32N 36°08' W 005°26'0 0.0
2017-Mar-21 03:32N 36°08' W 005°26'0 0.0
2017-Mar-21 02:32N 36°08' W 005°26'0 0.0
2017-Mar-21 01:32N 36°08' W 005°26'0 0.0
2017-Mar-21 00:32N 36°08' W 005°26'0 0.0
2017-Mar-20 23:32N 36°08' W 005°26'0 0.0
2017-Mar-20 22:32N 36°08' W 005°26'0 0.0
2017-Mar-20 21:32N 36°08' W 005°26'0 0.0
2017-Mar-20 20:29N 36°08' W 005°26'0 0.0
2017-Mar-20 19:32N 36°08' W 005°26'0 0.0
2017-Mar-20 18:32N 36°08' W 005°26'0 0.0
2017-Mar-20 17:32N 36°08' W 005°26'0 0.0
2017-Mar-20 16:32N 36°08' W 005°26'0 0.0
2017-Mar-20 15:32N 36°08' W 005°26'0 0.0
2017-Mar-20 14:32N 36°08' W 005°26'0 0.0
2017-Mar-20 13:32N 36°08' W 005°26'0 0.0
2017-Mar-20 12:32N 36°08' W 005°26'0 0.0
2017-Mar-20 11:32N 36°08' W 005°26'0 0.0
2017-Mar-20 10:29N 36°08' W 005°26'0 0.0
2017-Mar-20 09:32N 36°08' W 005°26'0 0.0
2017-Mar-20 08:32N 36°08' W 005°26'0 0.0
2017-Mar-20 07:32N 36°08' W 005°26'0 0.0
2017-Mar-20 06:32N 36°08' W 005°26'0 0.0
2017-Mar-20 05:32N 36°08' W 005°26'0 0.0
2017-Mar-20 04:32N 36°08' W 005°26'0 0.0
2017-Mar-20 03:32N 36°08' W 005°26'0 0.0
2017-Mar-20 02:32N 36°08' W 005°26'0 0.0
2017-Mar-20 01:32N 36°08' W 005°26'0 0.0
2017-Mar-20 00:32N 36°08' W 005°26'0 0.0
2017-Mar-19 23:32N 36°08' W 005°26'0 0.0
2017-Mar-19 22:32N 36°08' W 005°26'0 0.0
2017-Mar-19 21:32N 36°08' W 005°26'0 0.0
2017-Mar-19 20:32N 36°08' W 005°26'0 0.0
2017-Mar-19 19:32N 36°08' W 005°26'0 0.0
2017-Mar-19 18:32N 36°08' W 005°26'0 0.0
2017-Mar-19 17:32N 36°08' W 005°26'0 0.0
2017-Mar-19 16:32N 36°08' W 005°26'0 0.0
2017-Mar-19 15:32N 36°08' W 005°26'0 0.0
2017-Mar-19 14:32N 36°08' W 005°26'0 0.0
2017-Mar-19 13:32N 36°08' W 005°26'0 0.0
2017-Mar-19 12:32N 36°08' W 005°26'0 0.0
2017-Mar-19 11:32N 36°08' W 005°26'0 0.0
2017-Mar-19 10:32N 36°08' W 005°26'0 0.0
2017-Mar-19 09:32N 36°08' W 005°26'0 0.0
2017-Mar-19 08:32N 36°08' W 005°26'0 0.0
2017-Mar-19 07:32N 36°08' W 005°26'0 0.0
2017-Mar-19 06:32N 36°08' W 005°26'0 0.0
2017-Mar-19 05:32N 36°08' W 005°26'0 0.0
2017-Mar-19 04:32N 36°08' W 005°26'0 0.0
2017-Mar-19 03:29N 36°08' W 005°26'0 0.0
2017-Mar-19 02:32N 36°08' W 005°26'0 0.0
2017-Mar-19 01:32N 36°08' W 005°26'0 0.0
2017-Mar-19 00:32N 36°08' W 005°26'0 0.0
2017-Mar-18 23:29N 36°08' W 005°26'0 0.0
2017-Mar-18 22:32N 36°08' W 005°26'0 0.0
2017-Mar-18 21:32N 36°08' W 005°26'0 0.0
2017-Mar-18 20:32N 36°08' W 005°26'0 0.0
2017-Mar-18 19:32N 36°08' W 005°26'0 0.0
2017-Mar-18 18:32N 36°08' W 005°26'0 0.0
2017-Mar-18 17:32N 36°08' W 005°26'0 0.0
2017-Mar-18 16:32N 36°08' W 005°26'0 0.0
2017-Mar-18 15:32N 36°08' W 005°26'0 0.0
2017-Mar-18 14:32N 36°08' W 005°26'0 0.0
2017-Mar-18 13:32N 36°08' W 005°26'0 0.0
2017-Mar-18 12:32N 36°08' W 005°26'0 0.0
2017-Mar-18 11:32N 36°08' W 005°26'0 0.0
2017-Mar-18 10:32N 36°08' W 005°26'0 0.0
2017-Mar-18 09:32N 36°08' W 005°26'0 0.0
2017-Mar-18 08:32N 36°08' W 005°26'0 0.0
2017-Mar-18 07:32N 36°08' W 005°26'0 0.0
2017-Mar-18 06:32N 36°08' W 005°26'0 0.0
2017-Mar-18 05:32N 36°08' W 005°26'0 0.0
2017-Mar-18 04:32N 36°08' W 005°26'0 0.0
2017-Mar-18 03:32N 36°08' W 005°26'0 0.0
2017-Mar-18 02:32N 36°08' W 005°26'0 0.0
2017-Mar-18 01:32N 36°08' W 005°26'0 0.0
2017-Mar-18 00:29N 36°08' W 005°26'0 0.0
2017-Mar-17 23:32N 36°08' W 005°26'0 0.0
2017-Mar-17 22:32N 36°08' W 005°26'0 0.0
2017-Mar-17 21:32N 36°08' W 005°26'0 0.0
2017-Mar-17 20:32N 36°08' W 005°26'0 0.0
2017-Mar-17 19:31N 36°08' W 005°26'0 0.0
2017-Mar-17 18:32N 36°08' W 005°26'0 0.0
2017-Mar-17 17:31N 36°08' W 005°26'0 0.0
2017-Mar-17 16:32N 36°08' W 005°26'0 0.0
2017-Mar-17 15:31N 36°08' W 005°26'0 0.0
2017-Mar-17 14:32N 36°08' W 005°26'0 0.0
2017-Mar-17 13:32N 36°08' W 005°26'0 0.0
2017-Mar-17 12:31N 36°08' W 005°26'0 0.0
2017-Mar-17 11:25N 36°08' W 005°26'0 0.0
2017-Mar-17 10:31N 36°08' W 005°26'0 0.0
2017-Mar-17 09:32N 36°08' W 005°26'0 0.0
2017-Mar-17 08:31N 36°08' W 005°26'0 0.0
2017-Mar-17 07:31N 36°08' W 005°26'0 0.0
2017-Mar-17 06:32N 36°08' W 005°26'0 0.0
2017-Mar-17 05:31N 36°08' W 005°26'0 0.0
2017-Mar-17 04:31N 36°08' W 005°26'0 0.0
2017-Mar-17 03:31N 36°08' W 005°26'0 0.0
2017-Mar-17 02:31N 36°08' W 005°26'0 0.0
2017-Mar-17 01:31N 36°08' W 005°26'0 0.0
2017-Mar-17 00:31N 36°08' W 005°26'1 1.3
2017-Mar-16 23:33N 36°09' W 005°25'10 9.6
2017-Mar-16 22:34N 35°60' W 005°22'7 6.2
2017-Mar-16 21:28N 35°54' W 005°19'0 0.0
2017-Mar-16 20:28N 35°54' W 005°19'0 0.0
2017-Mar-16 19:31N 35°54' W 005°19'0 0.0
2017-Mar-16 18:31N 35°54' W 005°19'0 0.0
2017-Mar-16 17:31N 35°54' W 005°19'0 0.0
2017-Mar-16 16:31N 35°54' W 005°19'0 0.0
2017-Mar-16 15:31N 35°54' W 005°19'0 0.0
2017-Mar-16 14:31N 35°54' W 005°19'0 0.0
2017-Mar-16 13:31N 35°54' W 005°19'0 0.0
2017-Mar-16 12:31N 35°54' W 005°19'0 0.0
2017-Mar-16 11:31N 35°54' W 005°19'0 0.0
2017-Mar-16 10:31N 35°54' W 005°19'0 0.0
2017-Mar-16 09:31N 35°54' W 005°19'0 0.0
2017-Mar-16 08:31N 35°54' W 005°19'0 0.0
2017-Mar-16 07:31N 35°54' W 005°19'0 0.0
2017-Mar-16 06:31N 35°54' W 005°19'  
Track history (hours):
 
Tides and Currents Weather Stations Pressure Air Temp Water Temp Dewpoint Dewpoint Depression Visibility Wind Speed Wind Dir Waves Ship Positions

Luz De Mar

Last reported at 2017-Mar-26 06:26 UTC. Time now 2017-Mar-26 13:01 UTC.
Position N 36°08' W 005°26'.

Length 56 m; draft 6.7 m.

Type: SAR. MMSI: 224311000.

Date/timePositionNaut miles runAvg speedWind from/ knotsBaromVisibWave heightAir tempDewpointWater temp
2017-Mar-26 06:26N 36°08' W 005°26'0 0.0
2017-Mar-26 05:20N 36°08' W 005°26'0 0.0
2017-Mar-26 04:32N 36°08' W 005°26'0 0.0
2017-Mar-26 03:20N 36°08' W 005°26'4 0.3
2017-Mar-25 13:33N 36°06' W 005°21'6 1.1
2017-Mar-25 08:19N 36°07' W 005°14'6 0.5
2017-Mar-24 19:33N 36°05' W 005°21'5 0.7
2017-Mar-24 12:33N 36°05' W 005°15'9 0.4
2017-Mar-23 14:31N 36°08' W 005°26'0 0.0
2017-Mar-23 13:28N 36°08' W 005°26'0 0.0
2017-Mar-23 12:31N 36°08' W 005°26'0 0.0
2017-Mar-23 11:31N 36°08' W 005°26'0 0.0
2017-Mar-23 10:31N 36°08' W 005°26'0 0.0
2017-Mar-23 09:31N 36°08' W 005°26'0 0.0
2017-Mar-23 08:31N 36°08' W 005°26'0 0.0
2017-Mar-23 07:31N 36°08' W 005°26'0 0.0
2017-Mar-23 06:31N 36°08' W 005°26'0 0.0
2017-Mar-23 05:31N 36°08' W 005°26'0 0.0
2017-Mar-23 04:31N 36°08' W 005°26'0 0.0
2017-Mar-23 03:31N 36°08' W 005°26'0 0.0
2017-Mar-23 02:31N 36°08' W 005°26'0 0.0
2017-Mar-23 01:31N 36°08' W 005°26'0 0.0
2017-Mar-23 00:31N 36°08' W 005°26'0 0.0
2017-Mar-22 23:31N 36°08' W 005°26'0 0.0
2017-Mar-22 22:31N 36°08' W 005°26'0 0.0
2017-Mar-22 21:31N 36°08' W 005°26'0 0.0
2017-Mar-22 20:31N 36°08' W 005°26'0 0.0
2017-Mar-22 19:31N 36°08' W 005°26'0 0.0
2017-Mar-22 18:28N 36°08' W 005°26'0 0.0
2017-Mar-22 17:31N 36°08' W 005°26'0 0.0
2017-Mar-22 16:31N 36°08' W 005°26'0 0.0
2017-Mar-22 15:28N 36°08' W 005°26'0 0.0
2017-Mar-22 14:31N 36°08' W 005°26'0 0.0
2017-Mar-22 13:31N 36°08' W 005°26'0 0.0
2017-Mar-22 12:31N 36°08' W 005°26'0 0.0
2017-Mar-22 11:31N 36°08' W 005°26'0 0.0
2017-Mar-22 10:31N 36°08' W 005°26'0 0.0
2017-Mar-22 09:28N 36°08' W 005°26'0 0.0
2017-Mar-22 08:31N 36°08' W 005°26'0 0.0
2017-Mar-22 07:31N 36°08' W 005°26'0 0.0
2017-Mar-22 06:31N 36°08' W 005°26'0 0.0
2017-Mar-22 05:31N 36°08' W 005°26'0 0.0
2017-Mar-22 04:31N 36°08' W 005°26'0 0.0
2017-Mar-22 03:31N 36°08' W 005°26'0 0.0
2017-Mar-22 02:31N 36°08' W 005°26'0 0.0
2017-Mar-22 01:31N 36°08' W 005°26'0 0.0
2017-Mar-22 00:31N 36°08' W 005°26'0 0.0
2017-Mar-21 23:31N 36°08' W 005°26'0 0.0
2017-Mar-21 22:31N 36°08' W 005°26'0 0.0
2017-Mar-21 21:31N 36°08' W 005°26'0 0.0
2017-Mar-21 20:31N 36°08' W 005°26'0 0.0
2017-Mar-21 19:31N 36°08' W 005°26'0 0.0
2017-Mar-21 18:31N 36°08' W 005°26'0 0.0
2017-Mar-21 17:31N 36°08' W 005°26'0 0.0
2017-Mar-21 16:31N 36°08' W 005°26'0 0.0
2017-Mar-21 15:31N 36°08' W 005°26'1 1.2
2017-Mar-21 14:33N 36°09' W 005°26'1 1.5
2017-Mar-21 13:33N 36°10' W 005°24'2 2.3
2017-Mar-21 12:32N 36°08' W 005°26'0 0.0
2017-Mar-21 11:32N 36°08' W 005°26'0 0.0
2017-Mar-21 10:32N 36°08' W 005°26'0 0.0
2017-Mar-21 09:32N 36°08' W 005°26'0 0.0
2017-Mar-21 08:32N 36°08' W 005°26'0 0.0
2017-Mar-21 07:32N 36°08' W 005°26'0 0.0
2017-Mar-21 06:32N 36°08' W 005°26'0 0.0
2017-Mar-21 05:32N 36°08' W 005°26'0 0.0
2017-Mar-21 04:32N 36°08' W 005°26'0 0.0
2017-Mar-21 03:32N 36°08' W 005°26'0 0.0
2017-Mar-21 02:32N 36°08' W 005°26'0 0.0
2017-Mar-21 01:32N 36°08' W 005°26'0 0.0
2017-Mar-21 00:32N 36°08' W 005°26'0 0.0
2017-Mar-20 23:32N 36°08' W 005°26'0 0.0
2017-Mar-20 22:32N 36°08' W 005°26'0 0.0
2017-Mar-20 21:32N 36°08' W 005°26'0 0.0
2017-Mar-20 20:29N 36°08' W 005°26'0 0.0
2017-Mar-20 19:32N 36°08' W 005°26'0 0.0
2017-Mar-20 18:32N 36°08' W 005°26'0 0.0
2017-Mar-20 17:32N 36°08' W 005°26'0 0.0
2017-Mar-20 16:32N 36°08' W 005°26'0 0.0
2017-Mar-20 15:32N 36°08' W 005°26'0 0.0
2017-Mar-20 14:32N 36°08' W 005°26'0 0.0
2017-Mar-20 13:32N 36°08' W 005°26'0 0.0
2017-Mar-20 12:32N 36°08' W 005°26'0 0.0
2017-Mar-20 11:32N 36°08' W 005°26'0 0.0
2017-Mar-20 10:29N 36°08' W 005°26'0 0.0
2017-Mar-20 09:32N 36°08' W 005°26'0 0.0
2017-Mar-20 08:32N 36°08' W 005°26'0 0.0
2017-Mar-20 07:32N 36°08' W 005°26'0 0.0
2017-Mar-20 06:32N 36°08' W 005°26'0 0.0
2017-Mar-20 05:32N 36°08' W 005°26'0 0.0
2017-Mar-20 04:32N 36°08' W 005°26'0 0.0
2017-Mar-20 03:32N 36°08' W 005°26'0 0.0
2017-Mar-20 02:32N 36°08' W 005°26'0 0.0
2017-Mar-20 01:32N 36°08' W 005°26'0 0.0
2017-Mar-20 00:32N 36°08' W 005°26'0 0.0
2017-Mar-19 23:32N 36°08' W 005°26'0 0.0
2017-Mar-19 22:32N 36°08' W 005°26'0 0.0
2017-Mar-19 21:32N 36°08' W 005°26'0 0.0
2017-Mar-19 20:32N 36°08' W 005°26'0 0.0
2017-Mar-19 19:32N 36°08' W 005°26'0 0.0
2017-Mar-19 18:32N 36°08' W 005°26'0 0.0
2017-Mar-19 17:32N 36°08' W 005°26'0 0.0
2017-Mar-19 16:32N 36°08' W 005°26'0 0.0
2017-Mar-19 15:32N 36°08' W 005°26'0 0.0
2017-Mar-19 14:32N 36°08' W 005°26'0 0.0
2017-Mar-19 13:32N 36°08' W 005°26'0 0.0
2017-Mar-19 12:32N 36°08' W 005°26'0 0.0
2017-Mar-19 11:32N 36°08' W 005°26'0 0.0
2017-Mar-19 10:32N 36°08' W 005°26'0 0.0
2017-Mar-19 09:32N 36°08' W 005°26'0 0.0
2017-Mar-19 08:32N 36°08' W 005°26'0 0.0
2017-Mar-19 07:32N 36°08' W 005°26'0 0.0
2017-Mar-19 06:32N 36°08' W 005°26'0 0.0
2017-Mar-19 05:32N 36°08' W 005°26'0 0.0
2017-Mar-19 04:32N 36°08' W 005°26'0 0.0
2017-Mar-19 03:29N 36°08' W 005°26'0 0.0
2017-Mar-19 02:32N 36°08' W 005°26'0 0.0
2017-Mar-19 01:32N 36°08' W 005°26'0 0.0
2017-Mar-19 00:32N 36°08' W 005°26'0 0.0
2017-Mar-18 23:29N 36°08' W 005°26'0 0.0
2017-Mar-18 22:32N 36°08' W 005°26'0 0.0
2017-Mar-18 21:32N 36°08' W 005°26'0 0.0
2017-Mar-18 20:32N 36°08' W 005°26'0 0.0
2017-Mar-18 19:32N 36°08' W 005°26'0 0.0
2017-Mar-18 18:32N 36°08' W 005°26'0 0.0
2017-Mar-18 17:32N 36°08' W 005°26'0 0.0
2017-Mar-18 16:32N 36°08' W 005°26'0 0.0
2017-Mar-18 15:32N 36°08' W 005°26'0 0.0
2017-Mar-18 14:32N 36°08' W 005°26'0 0.0
2017-Mar-18 13:32N 36°08' W 005°26'0 0.0
2017-Mar-18 12:32N 36°08' W 005°26'0 0.0
2017-Mar-18 11:32N 36°08' W 005°26'0 0.0
2017-Mar-18 10:32N 36°08' W 005°26'0 0.0
2017-Mar-18 09:32N 36°08' W 005°26'0 0.0
2017-Mar-18 08:32N 36°08' W 005°26'0 0.0
2017-Mar-18 07:32N 36°08' W 005°26'0 0.0
2017-Mar-18 06:32N 36°08' W 005°26'0 0.0
2017-Mar-18 05:32N 36°08' W 005°26'0 0.0
2017-Mar-18 04:32N 36°08' W 005°26'0 0.0
2017-Mar-18 03:32N 36°08' W 005°26'0 0.0
2017-Mar-18 02:32N 36°08' W 005°26'0 0.0
2017-Mar-18 01:32N 36°08' W 005°26'0 0.0
2017-Mar-18 00:29N 36°08' W 005°26'0 0.0
2017-Mar-17 23:32N 36°08' W 005°26'0 0.0
2017-Mar-17 22:32N 36°08' W 005°26'0 0.0
2017-Mar-17 21:32N 36°08' W 005°26'0 0.0
2017-Mar-17 20:32N 36°08' W 005°26'0 0.0
2017-Mar-17 19:31N 36°08' W 005°26'0 0.0
2017-Mar-17 18:32N 36°08' W 005°26'0 0.0
2017-Mar-17 17:31N 36°08' W 005°26'0 0.0
2017-Mar-17 16:32N 36°08' W 005°26'0 0.0
2017-Mar-17 15:31N 36°08' W 005°26'0 0.0
2017-Mar-17 14:32N 36°08' W 005°26'0 0.0
2017-Mar-17 13:32N 36°08' W 005°26'0 0.0
2017-Mar-17 12:31N 36°08' W 005°26'0 0.0
2017-Mar-17 11:25N 36°08' W 005°26'0 0.0
2017-Mar-17 10:31N 36°08' W 005°26'0 0.0
2017-Mar-17 09:32N 36°08' W 005°26'0 0.0
2017-Mar-17 08:31N 36°08' W 005°26'0 0.0
2017-Mar-17 07:31N 36°08' W 005°26'0 0.0
2017-Mar-17 06:32N 36°08' W 005°26'0 0.0
2017-Mar-17 05:31N 36°08' W 005°26'0 0.0
2017-Mar-17 04:31N 36°08' W 005°26'0 0.0
2017-Mar-17 03:31N 36°08' W 005°26'0 0.0
2017-Mar-17 02:31N 36°08' W 005°26'0 0.0
2017-Mar-17 01:31N 36°08' W 005°26'0 0.0
2017-Mar-17 00:31N 36°08' W 005°26'1 1.3
2017-Mar-16 23:33N 36°09' W 005°25'10 9.6
2017-Mar-16 22:34N 35°60' W 005°22'7 6.2
2017-Mar-16 21:28N 35°54' W 005°19'0 0.0
2017-Mar-16 20:28N 35°54' W 005°19'0 0.0
2017-Mar-16 19:31N 35°54' W 005°19'0 0.0
2017-Mar-16 18:31N 35°54' W 005°19'0 0.0
2017-Mar-16 17:31N 35°54' W 005°19'0 0.0
2017-Mar-16 16:31N 35°54' W 005°19'0 0.0
2017-Mar-16 15:31N 35°54' W 005°19'0 0.0
2017-Mar-16 14:31N 35°54' W 005°19'0 0.0
2017-Mar-16 13:31N 35°54' W 005°19'0 0.0
2017-Mar-16 12:31N 35°54' W 005°19'0 0.0
2017-Mar-16 11:31N 35°54' W 005°19'0 0.0
2017-Mar-16 10:31N 35°54' W 005°19'0 0.0
2017-Mar-16 09:31N 35°54' W 005°19'0 0.0
2017-Mar-16 08:31N 35°54' W 005°19'0 0.0
2017-Mar-16 07:31N 35°54' W 005°19'0 0.0
2017-Mar-16 06:31N 35°54' W 005°19'  

Dump ship's entire track history